createdAt,value
2022-10-11T00:02:29.794Z,15.77
2022-10-11T00:05:08.667Z,22.70
2022-10-11T00:07:45.911Z,30.83
2022-10-11T00:10:24.706Z,8.90
2022-10-11T00:13:02.638Z,17.60
2022-10-11T00:15:40.945Z,23.03
2022-10-11T00:18:18.970Z,21.40
2022-10-11T00:21:03.000Z,16.60
2022-10-11T00:23:41.858Z,25.00
2022-10-11T00:26:19.888Z,16.80
2022-10-11T00:28:58.091Z,13.00
2022-10-11T00:31:36.666Z,14.87
2022-10-11T00:34:17.082Z,22.93
2022-10-11T00:36:54.663Z,16.93
2022-10-11T00:39:33.174Z,12.20
2022-10-11T00:42:15.350Z,25.80
2022-10-11T00:44:52.367Z,20.27
2022-10-11T00:47:30.590Z,13.53
2022-10-11T00:50:11.530Z,25.97
2022-10-11T00:52:55.678Z,36.60
2022-10-11T00:55:36.831Z,22.23
2022-10-11T00:58:14.786Z,16.43
2022-10-11T01:00:54.023Z,19.03
2022-10-11T01:03:38.246Z,16.80
2022-10-11T01:06:15.861Z,15.80
2022-10-11T01:08:54.082Z,15.83
2022-10-11T01:11:42.514Z,23.37
2022-10-11T01:14:36.793Z,9.60
2022-10-11T01:17:23.335Z,12.60
2022-10-11T01:20:20.199Z,11.03
2022-10-11T01:23:35.825Z,9.00
2022-10-11T01:26:39.465Z,28.23
2022-10-11T01:29:42.077Z,25.77
2022-10-11T01:32:29.352Z,17.40
2022-10-11T01:35:15.414Z,10.80
2022-10-11T01:38:01.774Z,20.23
2022-10-11T01:40:45.861Z,15.03
2022-10-11T01:43:25.599Z,17.43
2022-10-11T01:46:04.764Z,21.60
2022-10-11T01:48:55.278Z,24.90
2022-10-11T01:51:47.458Z,19.63
2022-10-11T01:54:56.627Z,21.33
2022-10-11T01:57:43.695Z,16.67
2022-10-11T02:00:28.728Z,12.63
2022-10-11T02:03:21.423Z,27.40
2022-10-11T02:06:22.499Z,13.00
2022-10-11T02:09:22.111Z,22.33
2022-10-11T02:12:07.029Z,20.40
2022-10-11T02:14:49.317Z,19.87
2022-10-11T02:17:34.246Z,16.53
2022-10-11T02:20:17.582Z,27.80
2022-10-11T02:23:13.386Z,15.07
2022-10-11T02:25:53.525Z,33.47
2022-10-11T02:28:35.636Z,24.60
2022-10-11T02:31:15.217Z,12.97
2022-10-11T02:34:21.933Z,12.93
2022-10-11T02:37:08.851Z,21.70
2022-10-11T02:39:51.868Z,14.50
2022-10-11T02:42:37.910Z,22.77
2022-10-11T02:50:00.034Z,17.77
2022-10-11T02:52:38.069Z,14.80
2022-10-11T02:55:16.619Z,15.53
2022-10-11T02:57:54.504Z,22.97
2022-10-11T03:00:33.269Z,32.23
2022-10-11T03:03:11.073Z,14.03
2022-10-11T03:05:49.263Z,9.83
2022-10-11T03:08:27.766Z,10.63
2022-10-11T03:11:05.757Z,20.50
2022-10-11T03:13:43.898Z,21.97
2022-10-11T03:16:22.099Z,14.50
2022-10-11T03:19:00.348Z,25.13
2022-10-11T03:21:38.787Z,14.03
2022-10-11T03:24:16.790Z,16.33
2022-10-11T03:26:55.388Z,16.90
2022-10-11T03:29:33.244Z,21.17
2022-10-11T03:32:11.811Z,34.60
2022-10-11T03:34:49.713Z,17.83
2022-10-11T03:37:28.272Z,14.80
2022-10-11T03:40:08.349Z,21.30
2022-10-11T03:42:45.981Z,14.33
2022-10-11T03:45:24.290Z,18.40
2022-10-11T03:48:03.300Z,23.73
2022-10-11T03:50:40.718Z,18.17
2022-10-11T03:53:18.903Z,14.07
2022-10-11T03:55:57.593Z,21.93
2022-10-11T03:58:35.430Z,15.57
2022-10-11T04:01:13.685Z,25.30
2022-10-11T04:03:55.654Z,21.30
2022-10-11T04:06:33.338Z,30.73
2022-10-11T04:09:11.687Z,18.80
2022-10-11T04:11:49.692Z,23.50
2022-10-11T04:14:28.065Z,20.70
2022-10-11T04:17:06.432Z,18.47
2022-10-11T04:19:44.354Z,18.40
2022-10-11T04:22:22.606Z,18.37
2022-10-11T04:25:00.870Z,25.40
2022-10-11T04:27:39.212Z,19.37
2022-10-11T04:30:17.544Z,46.43
2022-10-11T04:32:55.540Z,17.50
2022-10-11T04:35:33.758Z,24.10
2022-10-11T04:38:11.929Z,27.27
2022-10-11T04:40:50.286Z,26.53
2022-10-11T04:43:28.430Z,22.63
2022-10-11T04:46:07.986Z,26.20
2022-10-11T04:48:46.638Z,20.17
2022-10-11T04:51:25.579Z,32.07
2022-10-11T04:54:02.966Z,16.33
2022-10-11T04:56:41.145Z,27.23
2022-10-11T04:59:19.442Z,19.60
2022-10-11T05:01:57.714Z,12.73
2022-10-11T05:04:35.813Z,21.33
2022-10-11T05:07:14.215Z,19.40
2022-10-11T05:09:52.349Z,20.23
2022-10-11T05:12:30.594Z,11.70
2022-10-11T05:15:09.262Z,16.13
2022-10-11T05:17:46.962Z,18.80
2022-10-11T05:20:25.183Z,19.53
2022-10-11T05:23:03.406Z,9.93
2022-10-11T05:25:41.684Z,22.90
2022-10-11T05:28:19.951Z,31.77
2022-10-11T05:30:58.532Z,15.53
2022-10-11T05:33:36.749Z,16.90
2022-10-11T05:36:15.303Z,12.57
2022-10-11T05:38:52.730Z,15.00
2022-10-11T05:41:31.137Z,11.53
2022-10-11T05:44:09.237Z,21.57
2022-10-11T05:46:47.471Z,18.90
2022-10-11T05:49:25.731Z,14.00
2022-10-11T05:52:04.048Z,19.37
2022-10-11T05:54:42.266Z,14.33
2022-10-11T05:57:20.389Z,15.83
2022-10-11T05:59:58.622Z,10.97
2022-10-11T06:02:36.805Z,16.23
2022-10-11T06:05:15.597Z,26.77
2022-10-11T06:07:53.318Z,13.37
2022-10-11T06:10:32.189Z,20.47
2022-10-11T06:13:09.779Z,15.97
2022-10-11T06:16:11.345Z,12.70
2022-10-11T06:19:11.227Z,24.07
2022-10-11T06:22:06.492Z,14.50
2022-10-11T06:25:03.418Z,29.20
2022-10-11T06:27:58.305Z,15.30
2022-10-11T06:30:56.939Z,22.47
2022-10-11T06:33:51.644Z,9.07
2022-10-11T06:36:46.438Z,19.90
2022-10-11T06:39:41.820Z,5.27
2022-10-11T06:42:42.624Z,10.40
2022-10-11T06:45:40.249Z,7.97
2022-10-11T06:48:39.950Z,10.07
2022-10-11T06:51:31.447Z,11.47
2022-10-11T06:54:23.488Z,7.87
2022-10-11T06:57:18.430Z,8.23
2022-10-11T07:00:14.371Z,9.10
2022-10-11T07:03:15.114Z,20.70
2022-10-11T07:06:18.989Z,7.97
2022-10-11T07:09:19.771Z,6.43
2022-10-11T07:12:11.750Z,10.57
2022-10-11T07:15:07.874Z,6.63
2022-10-11T07:18:04.533Z,9.30
2022-10-11T07:21:01.923Z,10.70
2022-10-11T07:24:05.374Z,17.63
2022-10-11T07:26:56.932Z,5.60
2022-10-11T07:30:03.076Z,7.37
2022-10-11T07:32:58.512Z,12.27
2022-10-11T07:35:51.080Z,6.47
2022-10-11T07:38:47.569Z,6.40
2022-10-11T07:41:45.660Z,13.53
2022-10-11T07:44:38.245Z,9.80
2022-10-11T07:47:38.114Z,6.83
2022-10-11T07:50:34.269Z,6.47
2022-10-11T07:53:43.289Z,4.70
2022-10-11T07:56:34.973Z,11.60
2022-10-11T07:59:39.142Z,15.43
2022-10-11T08:02:30.729Z,7.50
2022-10-11T08:05:24.755Z,10.20
2022-10-11T08:08:19.389Z,13.13
2022-10-11T08:11:23.402Z,9.70
2022-10-11T08:14:19.399Z,8.27
2022-10-11T08:17:11.940Z,6.70
2022-10-11T08:20:04.746Z,7.50
2022-10-11T08:23:00.516Z,10.65
2022-10-11T08:25:56.593Z,11.35
2022-10-11T08:28:52.361Z,13.07
2022-10-11T08:31:44.778Z,9.63
2022-10-11T08:34:45.719Z,10.45
2022-10-11T08:37:37.489Z,7.22
2022-10-11T08:40:32.915Z,13.50
2022-10-11T08:43:40.617Z,10.10
2022-10-11T08:46:56.915Z,6.13
2022-10-11T08:50:00.689Z,9.20
2022-10-11T08:53:05.909Z,6.17
2022-10-11T08:55:50.859Z,10.43
2022-10-11T08:59:04.578Z,9.63
2022-10-11T09:02:43.607Z,14.00
2022-10-11T09:05:30.987Z,5.65
2022-10-11T09:08:34.653Z,6.53
2022-10-11T09:11:33.021Z,12.02
2022-10-11T09:14:23.485Z,7.35
2022-10-11T09:17:11.728Z,8.45
2022-10-11T09:19:55.942Z,7.18
2022-10-11T09:22:51.866Z,7.82
2022-10-11T09:25:41.915Z,11.15
2022-10-11T09:28:44.086Z,11.55
2022-10-11T09:31:11.476Z,5.90
2022-10-11T09:33:44.029Z,15.30
2022-10-11T09:39:10.185Z,10.27
2022-10-11T09:42:03.502Z,13.63
2022-10-11T09:44:35.567Z,5.55
2022-10-11T09:47:03.318Z,10.38
2022-10-11T09:49:40.657Z,22.97
2022-10-11T09:52:17.229Z,8.90
2022-10-11T09:54:52.135Z,7.30
2022-10-11T09:57:23.657Z,9.20
2022-10-11T10:00:02.379Z,15.13
2022-10-11T10:03:26.377Z,6.17
2022-10-11T10:06:06.825Z,9.70
2022-10-11T10:08:34.803Z,6.87
2022-10-11T10:11:07.979Z,7.37
2022-10-11T10:13:40.622Z,10.77
2022-10-11T10:16:11.710Z,10.53
2022-10-11T10:18:50.790Z,7.33
2022-10-11T10:21:29.655Z,9.10
2022-10-11T10:23:59.923Z,15.43
2022-10-11T10:26:27.320Z,7.93
2022-10-11T10:29:09.535Z,7.50
2022-10-11T10:32:12.965Z,6.80
2022-10-11T10:34:41.465Z,9.93
2022-10-11T10:37:25.237Z,9.63
2022-10-11T10:39:56.338Z,10.43
2022-10-11T10:42:22.999Z,9.90
2022-10-11T10:44:54.954Z,12.73
2022-10-11T10:47:46.167Z,15.70
2022-10-11T10:50:21.565Z,10.60
2022-10-11T10:53:12.024Z,13.20
2022-10-11T10:55:44.309Z,12.00
2022-10-11T10:58:29.486Z,7.80
2022-10-11T11:01:02.163Z,15.03
2022-10-11T11:03:32.185Z,7.67
2022-10-11T11:06:06.384Z,8.87
2022-10-11T11:08:53.195Z,10.93
2022-10-11T11:11:37.380Z,12.10
2022-10-11T11:14:18.653Z,16.40
2022-10-11T11:16:56.214Z,11.97
2022-10-11T11:19:29.978Z,12.20
2022-10-11T11:22:14.885Z,13.30
2022-10-11T11:25:05.722Z,14.90
2022-10-11T11:28:10.058Z,14.60
2022-10-11T11:30:41.301Z,9.20
2022-10-11T11:33:46.359Z,17.83
2022-10-11T11:36:23.407Z,10.03
2022-10-11T11:38:56.750Z,11.33
2022-10-11T11:41:27.506Z,10.00
2022-10-11T11:44:22.764Z,9.23
2022-10-11T11:47:04.355Z,27.67
2022-10-11T11:49:36.036Z,7.97
2022-10-11T11:52:05.491Z,13.10
2022-10-11T11:54:47.340Z,21.80
2022-10-11T11:57:34.333Z,13.77
2022-10-11T12:00:13.369Z,14.67
2022-10-11T12:02:50.282Z,15.30
2022-10-11T12:05:22.045Z,12.43
2022-10-11T12:07:56.277Z,9.57
2022-10-11T12:10:27.936Z,11.57
2022-10-11T12:13:06.678Z,12.40
2022-10-11T12:15:34.107Z,13.13
2022-10-11T12:18:04.384Z,10.63
2022-10-11T12:20:41.460Z,10.27
2022-10-11T12:23:29.922Z,13.67
2022-10-11T12:26:16.109Z,16.70
2022-10-11T12:28:43.022Z,20.80
2022-10-11T12:31:20.702Z,14.13
2022-10-11T12:33:47.161Z,17.13
2022-10-11T12:36:32.291Z,13.80
2022-10-11T12:39:18.214Z,6.67
2022-10-11T12:41:47.516Z,22.47
2022-10-11T12:44:23.996Z,12.47
2022-10-11T12:46:50.462Z,12.43
2022-10-11T12:49:36.275Z,13.97
2022-10-11T12:52:22.450Z,16.73
2022-10-11T12:55:22.785Z,13.20
2022-10-11T12:58:26.883Z,11.80
2022-10-11T13:00:56.950Z,15.27
2022-10-11T13:03:34.585Z,7.63
2022-10-11T13:06:24.989Z,11.10
2022-10-11T13:09:04.441Z,10.43
2022-10-11T13:11:35.222Z,12.00
2022-10-11T13:14:17.489Z,13.00
2022-10-11T13:16:49.887Z,9.00
2022-10-11T13:19:17.269Z,9.83
2022-10-11T13:21:51.454Z,10.27
2022-10-11T13:24:19.330Z,18.77
2022-10-11T13:26:49.059Z,9.20
2022-10-11T13:29:18.716Z,16.30
2022-10-11T13:31:48.069Z,16.77
2022-10-11T13:34:17.671Z,17.70
2022-10-11T13:36:46.430Z,14.17
2022-10-11T13:39:31.602Z,13.23
2022-10-11T13:42:00.093Z,19.57
2022-10-11T13:44:27.197Z,7.73
2022-10-11T13:46:54.527Z,13.00
2022-10-11T13:49:27.402Z,12.57
2022-10-11T13:52:00.238Z,10.40
2022-10-11T13:54:54.514Z,27.50
2022-10-11T13:57:29.277Z,11.83
2022-10-11T13:59:56.069Z,11.93
2022-10-11T14:02:24.746Z,12.77
2022-10-11T14:04:51.379Z,21.83
2022-10-11T14:07:33.445Z,18.83
2022-10-11T14:10:00.133Z,13.43
2022-10-11T14:12:31.998Z,21.37
2022-10-11T14:15:01.468Z,15.27
2022-10-11T14:17:44.259Z,16.00
2022-10-11T14:20:11.690Z,18.17
2022-10-11T14:22:38.752Z,11.50
2022-10-11T14:25:05.817Z,16.83
2022-10-11T14:27:32.739Z,12.00
2022-10-11T14:30:24.089Z,21.10
2022-10-11T14:32:49.022Z,62.83
2022-10-11T14:35:18.870Z,15.30
2022-10-11T14:37:45.924Z,14.67
2022-10-11T14:40:16.007Z,25.00
2022-10-11T14:42:43.346Z,11.60
2022-10-11T14:45:10.342Z,12.20
2022-10-11T14:47:42.621Z,11.20
2022-10-11T14:50:34.878Z,7.93
2022-10-11T14:53:02.966Z,13.90
2022-10-11T14:55:31.050Z,12.90
2022-10-11T14:57:58.058Z,17.33
2022-10-11T15:00:28.002Z,11.53
2022-10-11T15:02:55.890Z,9.93
2022-10-11T15:05:27.748Z,17.53
2022-10-11T15:07:57.795Z,12.97
2022-10-11T15:10:26.463Z,16.40
2022-10-11T15:12:55.013Z,11.20
2022-10-11T15:15:25.011Z,11.50
2022-10-11T15:17:55.113Z,19.60
2022-10-11T15:20:24.148Z,7.40
2022-10-11T15:22:51.846Z,19.67
2022-10-11T15:25:18.781Z,12.40
2022-10-11T15:27:45.756Z,15.80
2022-10-11T15:30:17.270Z,12.43
2022-10-11T15:32:45.542Z,5.50
2022-10-11T15:35:12.446Z,8.70
2022-10-11T15:37:39.208Z,17.27
2022-10-11T15:40:16.453Z,9.63
2022-10-11T15:42:43.642Z,11.20
2022-10-11T15:45:10.595Z,10.00
2022-10-11T15:47:37.623Z,9.23
2022-10-11T15:50:14.014Z,16.67
2022-10-11T15:52:40.675Z,13.07
2022-10-11T15:55:07.568Z,12.77
2022-10-11T15:57:34.130Z,11.30
2022-10-11T16:00:00.649Z,12.23
2022-10-11T16:02:27.783Z,8.27
2022-10-11T16:04:54.314Z,16.97
2022-10-11T16:07:20.879Z,9.13
2022-10-11T16:09:47.405Z,17.03
2022-10-11T16:12:14.008Z,16.83
2022-10-11T16:14:44.903Z,7.10
2022-10-11T16:17:13.674Z,8.53
2022-10-11T16:19:40.258Z,9.10
2022-10-11T16:22:06.797Z,12.63
2022-10-11T16:24:33.453Z,14.43
2022-10-11T16:27:00.975Z,10.33
2022-10-11T16:29:27.653Z,15.90
2022-10-11T16:31:54.437Z,8.80
2022-10-11T16:34:20.970Z,20.23
2022-10-11T16:36:47.867Z,14.10
2022-10-11T16:39:17.233Z,24.33
2022-10-11T16:41:45.188Z,20.47
2022-10-11T16:44:13.870Z,15.50
2022-10-11T16:46:41.120Z,15.37
2022-10-11T16:49:07.947Z,15.10
2022-10-11T16:51:34.528Z,19.13
2022-10-11T16:54:01.871Z,23.50
2022-10-11T16:56:28.579Z,21.37
2022-10-11T16:58:56.102Z,12.20
2022-10-11T17:01:23.565Z,10.33
2022-10-11T17:03:51.320Z,12.40
2022-10-11T17:06:18.903Z,18.43
2022-10-11T17:08:45.521Z,12.83
2022-10-11T17:11:12.157Z,11.30
2022-10-11T17:13:38.786Z,12.97
2022-10-11T17:16:05.988Z,23.67
2022-10-11T17:18:32.744Z,14.70
2022-10-11T17:21:04.818Z,13.40
2022-10-11T17:23:32.939Z,21.90
2022-10-11T17:26:05.256Z,18.33
2022-10-11T17:28:36.280Z,18.07
2022-10-11T17:31:04.753Z,16.43
2022-10-11T17:33:32.422Z,24.10
2022-10-11T17:36:00.686Z,15.83
2022-10-11T17:38:27.603Z,24.53
2022-10-11T17:41:02.338Z,16.67
2022-10-11T17:43:29.533Z,17.23
2022-10-11T17:45:57.275Z,22.63
2022-10-11T17:48:24.470Z,24.53
2022-10-11T17:50:51.046Z,34.30
2022-10-11T17:53:18.145Z,49.43
2022-10-11T17:55:45.379Z,38.03
2022-10-11T17:58:12.786Z,43.70
2022-10-11T18:00:40.098Z,29.47
2022-10-11T18:03:06.867Z,32.60
2022-10-11T18:05:33.786Z,31.67
2022-10-11T18:08:00.574Z,35.70
2022-10-11T18:10:27.617Z,31.63
2022-10-11T18:12:54.823Z,29.77
2022-10-11T18:15:21.668Z,38.33
2022-10-11T18:17:48.242Z,25.23
2022-10-11T18:20:14.827Z,23.53
2022-10-11T18:22:41.358Z,20.60
2022-10-11T18:25:08.303Z,17.67
2022-10-11T18:27:34.898Z,19.53
2022-10-11T18:30:02.703Z,11.70
2022-10-11T18:32:29.232Z,12.23
2022-10-11T18:34:57.828Z,13.80
2022-10-11T18:37:24.589Z,9.27
2022-10-11T18:39:51.304Z,13.27
2022-10-11T18:42:17.899Z,16.77
2022-10-11T18:44:44.734Z,9.53
2022-10-11T18:47:11.300Z,10.63
2022-10-11T18:49:38.427Z,17.20
2022-10-11T18:52:05.526Z,11.33
2022-10-11T18:54:32.502Z,17.30
2022-10-11T18:56:59.043Z,16.90
2022-10-11T18:59:25.644Z,16.60
2022-10-11T19:01:52.572Z,19.33
2022-10-11T19:04:19.922Z,11.67
2022-10-11T19:06:48.904Z,14.83
2022-10-11T19:09:24.271Z,17.40
2022-10-11T19:11:56.341Z,15.60
2022-10-11T19:14:26.050Z,13.13
2022-10-11T19:16:53.689Z,30.60
2022-10-11T19:19:23.895Z,26.43
2022-10-11T19:21:51.382Z,134.07
2022-10-11T19:24:21.993Z,155.07
2022-10-11T19:26:49.929Z,110.40
2022-10-11T19:29:19.723Z,118.63
2022-10-11T19:31:49.122Z,169.33
2022-10-11T19:34:16.206Z,257.30
2022-10-11T19:36:43.125Z,454.97
2022-10-11T19:39:13.214Z,491.20
2022-10-11T19:41:40.233Z,441.10
2022-10-11T19:44:07.122Z,453.97
2022-10-11T19:49:24.631Z,520.07
2022-10-11T19:51:55.332Z,446.93
2022-10-11T19:54:22.733Z,417.67
2022-10-11T19:56:50.497Z,335.47
2022-10-11T19:59:17.294Z,355.43
2022-10-11T20:01:49.319Z,332.37
2022-10-11T20:04:39.428Z,277.03
2022-10-11T20:07:03.174Z,263.37
2022-10-11T20:09:30.864Z,271.00
2022-10-11T20:11:58.372Z,280.10
2022-10-11T20:14:25.567Z,249.53
2022-10-11T20:16:52.983Z,246.43
2022-10-11T20:19:19.994Z,235.40
2022-10-11T20:21:47.415Z,244.77
2022-10-11T20:24:15.370Z,239.93
2022-10-11T20:26:41.989Z,266.70
2022-10-11T20:29:08.520Z,214.70
2022-10-11T20:31:41.616Z,206.63
2022-10-11T20:34:11.147Z,206.37
2022-10-11T20:36:37.934Z,184.53
2022-10-11T20:39:06.569Z,166.63
2022-10-11T20:41:39.739Z,153.57
2022-10-11T20:44:07.685Z,155.50
2022-10-11T20:46:37.091Z,176.70
2022-10-11T20:49:10.504Z,148.97
2022-10-11T20:51:38.885Z,130.87
2022-10-11T20:54:05.734Z,132.30
2022-10-11T20:56:34.114Z,139.10
2022-10-11T20:59:01.336Z,124.93
2022-10-11T21:01:31.108Z,116.50
2022-10-11T21:04:00.200Z,117.83
2022-10-11T21:06:27.559Z,112.33
2022-10-11T21:08:55.654Z,104.47
2022-10-11T21:11:25.778Z,88.97
2022-10-11T21:13:56.607Z,73.37
2022-10-11T21:16:23.816Z,49.27
2022-10-11T21:18:55.271Z,43.87
2022-10-11T21:21:25.877Z,38.93
2022-10-11T21:23:56.843Z,45.77
2022-10-11T21:26:23.598Z,39.87
2022-10-11T21:28:51.075Z,51.00
2022-10-11T21:31:19.710Z,45.17
2022-10-11T21:33:46.258Z,33.20
2022-10-11T21:36:16.102Z,24.73
2022-10-11T21:38:43.369Z,27.40
2022-10-11T21:41:15.841Z,21.97
2022-10-11T21:43:42.432Z,35.27
2022-10-11T21:46:19.620Z,26.57
2022-10-11T21:48:47.206Z,14.20
2022-10-11T21:51:17.069Z,12.87
2022-10-11T21:53:43.613Z,16.43
2022-10-11T21:56:10.135Z,14.00
2022-10-11T21:58:36.869Z,14.60
2022-10-11T22:01:03.583Z,16.13
2022-10-11T22:03:30.324Z,21.03
2022-10-11T22:05:57.019Z,13.13
2022-10-11T22:08:23.546Z,8.47
2022-10-11T22:10:57.045Z,15.00
2022-10-11T22:13:25.337Z,12.63
2022-10-11T22:15:52.032Z,11.00
2022-10-11T22:18:19.009Z,21.47
2022-10-11T22:20:45.966Z,10.30
2022-10-11T22:23:12.551Z,12.60
2022-10-11T22:25:39.769Z,16.00
2022-10-11T22:28:07.034Z,17.70
2022-10-11T22:30:33.927Z,10.20
2022-10-11T22:33:00.572Z,12.80
2022-10-11T22:35:27.095Z,18.53
2022-10-11T22:37:53.983Z,24.50
2022-10-11T22:40:20.923Z,24.97
2022-10-11T22:42:47.998Z,26.57
2022-10-11T22:45:15.015Z,25.20
2022-10-11T22:47:41.566Z,27.97
2022-10-11T22:50:08.871Z,26.70
2022-10-11T22:52:35.379Z,24.23
2022-10-11T22:55:02.221Z,24.03
2022-10-11T22:57:29.529Z,23.83
2022-10-11T22:59:56.169Z,22.40
2022-10-11T23:02:23.151Z,34.00
2022-10-11T23:04:49.741Z,26.90
2022-10-11T23:07:16.260Z,33.73
2022-10-11T23:09:42.787Z,32.10
2022-10-11T23:12:09.339Z,36.77
2022-10-11T23:14:35.886Z,25.07
2022-10-11T23:17:02.691Z,29.87
2022-10-11T23:19:29.269Z,23.00
2022-10-11T23:21:55.796Z,24.03
2022-10-11T23:24:22.333Z,23.67
2022-10-11T23:26:49.043Z,24.60
2022-10-11T23:29:15.604Z,22.60
2022-10-11T23:31:42.146Z,22.33
2022-10-11T23:34:08.668Z,23.97
2022-10-11T23:36:35.202Z,24.70
2022-10-11T23:39:01.754Z,23.27
2022-10-11T23:41:29.321Z,21.00
2022-10-11T23:43:57.029Z,21.80
2022-10-11T23:46:23.600Z,20.80
2022-10-11T23:48:50.397Z,17.13
2022-10-11T23:51:16.941Z,15.23
2022-10-11T23:53:43.469Z,14.70
2022-10-11T23:56:11.093Z,18.93
2022-10-11T23:58:38.091Z,12.07
